Aérodrome :
LOGIN :

S'inscrire | Disclaimer

   EN    FR    IT 

 










Légende :    VFR   VFR Marginal   IFR   IFR Intensif   IFR Très Intensif
Visi : 
Plafond : 
>= 8 km
>= 3000ft
5 à 8 km
1000 à 3000 ft
1500m à 5 km
500 à 1000 ft
800 à 1500m
200 à 500 ft
< 800m
< 200 ft
Symboles :   Orages  Brouillard  Fortes neiges  Fortes précipitations  Vent > 20 kt
SIGMETs :   Divers  Orages  Givrage  Turbulence  Onde Orograph.  Cendres Volcan.






- Altitude de l'aérodrome : 327 ft
- Code IATA : BHX


EGBB - Birmingham

DERNIER METAR :
  • 190750Z 06008KT 020V100 9999 BKN019 13/08 Q1023

METARs EXPIRÉS :
  • 190720Z 05010KT 010V080 9999 BKN019 12/08 Q1022
  • 190650Z 05008KT 010V080 9999 BKN015 12/08 Q1022
  • 190620Z 04007KT 360V070 9999 BKN016 12/08 Q1022
  • 190550Z 05006KT 010V090 9999 BKN016 11/08 Q1021
  • 190520Z 06007KT 9999 BKN014 11/08 Q1021
  • 190450Z 05009KT 9999 BKN012 11/08 Q1021
  • 190420Z 05007KT 9999 SCT011 OVC016 11/09 Q1021
  • 190350Z 03005KT 9999 FEW011 BKN016 11/09 Q1021
  • 190320Z 04004KT 010V090 9999 BKN011 11/10 Q1020

TAF TAF EGBB
Valide du 19 à 06h jusqu'au 20 à 06h UTC


190457Z 1906/2006 05010KT 9999 SCT025
PROB30
TEMPO 1906/1907 BKN014
BECMG 1919/1923 VRB02KT
ATIS : +44 121 780 0910



MET'MAP, la Météo Aéronautique d'un coup d'oeil ! - Copyright ORBIFLY Décembre 2007 - Disclaimer

ORBIFLY MET'MAP TEAM :

Programmation & Développement : Alexandra Zaïnal
Sur une idée originale de : Baudouin d'Aumeries
Soutien technique & logistique : Manuel Goepfert
Assistance : Marc-Olivier Méhu




SOURCES & CREDITS :

   NOAA